createdAt,value
2023-06-09T00:05:27.003Z,63.38
2023-06-09T00:07:55.040Z,63.28
2023-06-09T00:10:21.791Z,63.15
2023-06-09T00:12:48.630Z,62.94
2023-06-09T00:15:16.418Z,63.11
2023-06-09T00:17:43.700Z,63.26
2023-06-09T00:20:11.014Z,63.35
2023-06-09T00:22:49.715Z,63.52
2023-06-09T00:29:34.972Z,63.81
2023-06-09T00:32:01.828Z,63.89
2023-06-09T00:34:28.586Z,63.84
2023-06-09T00:36:55.397Z,64.03
2023-06-09T00:43:42.142Z,63.89
2023-06-09T00:46:09.556Z,63.89
2023-06-09T00:48:37.680Z,63.94
2023-06-09T00:51:04.592Z,64.11
2023-06-09T00:53:31.998Z,64.00
2023-06-09T00:55:58.848Z,64.04
2023-06-09T00:58:25.970Z,63.89
2023-06-09T01:00:52.847Z,63.76
2023-06-09T01:07:56.540Z,63.93
2023-06-09T01:10:41.933Z,64.11
2023-06-09T01:13:29.009Z,64.35
2023-06-09T01:16:06.890Z,64.33
2023-06-09T01:18:36.911Z,64.44
2023-06-09T01:21:07.815Z,64.39
2023-06-09T01:23:46.277Z,64.36
2023-06-09T01:26:15.517Z,64.32
2023-06-09T01:28:44.485Z,64.34
2023-06-09T01:31:12.975Z,64.56
2023-06-09T01:33:40.708Z,64.61
2023-06-09T01:36:07.986Z,64.54
2023-06-09T01:38:34.836Z,64.64
2023-06-09T01:41:01.732Z,64.46
2023-06-09T01:43:28.572Z,64.45
2023-06-09T01:45:57.082Z,64.45
2023-06-09T01:48:42.522Z,64.53
2023-06-09T01:51:23.586Z,64.43
2023-06-09T01:53:59.981Z,64.42
2023-06-09T01:56:36.008Z,64.33
2023-06-09T01:59:09.628Z,64.31
2023-06-09T02:05:58.562Z,63.77
2023-06-09T02:08:29.815Z,63.83
2023-06-09T02:10:56.939Z,63.85
2023-06-09T02:13:24.268Z,63.96
2023-06-09T02:15:51.298Z,64.42
2023-06-09T02:18:22.859Z,64.63
2023-06-09T02:20:50.880Z,64.47
2023-06-09T02:23:25.052Z,64.35
2023-06-09T02:25:52.321Z,64.42
2023-06-09T02:28:19.319Z,64.43
2023-06-09T02:30:46.946Z,64.35
2023-06-09T02:37:30.004Z,64.37
2023-06-09T02:39:56.842Z,64.52
2023-06-09T02:42:23.680Z,64.68
2023-06-09T02:44:50.475Z,64.80
2023-06-09T02:47:17.684Z,64.79
2023-06-09T02:49:44.749Z,64.76
2023-06-09T02:56:25.438Z,64.85
2023-06-09T02:58:54.455Z,64.77
2023-06-09T03:01:22.192Z,64.93
2023-06-09T03:03:51.018Z,65.01
2023-06-09T03:06:18.669Z,65.09
2023-06-09T03:08:45.676Z,65.07
2023-06-09T03:11:12.832Z,65.11
2023-06-09T03:13:39.920Z,65.02
2023-06-09T03:16:07.592Z,64.98
2023-06-09T03:22:50.054Z,65.11
2023-06-09T03:29:37.818Z,64.92
2023-06-09T03:32:04.996Z,64.95
2023-06-09T03:34:33.105Z,64.90
2023-06-09T03:37:02.283Z,65.00
2023-06-09T03:39:47.640Z,65.26
2023-06-09T03:42:17.369Z,65.35
2023-06-09T03:44:44.280Z,65.25
2023-06-09T03:47:11.107Z,65.27
2023-06-09T03:49:39.100Z,65.30
2023-06-09T03:52:07.623Z,65.29
2023-06-09T03:54:35.765Z,65.41
2023-06-09T03:57:02.935Z,65.51
2023-06-09T04:03:44.348Z,65.59
2023-06-09T04:06:11.290Z,65.66
2023-06-09T04:08:38.158Z,65.56
2023-06-09T04:11:04.995Z,65.64
2023-06-09T04:13:31.756Z,65.56
2023-06-09T04:15:58.922Z,65.52
2023-06-09T04:18:26.368Z,65.41
2023-06-09T04:25:27.167Z,65.22
2023-06-09T04:32:18.287Z,65.32
2023-06-09T04:34:49.718Z,65.13
2023-06-09T04:41:38.866Z,65.23
2023-06-09T04:44:07.538Z,65.42
2023-06-09T04:46:42.778Z,65.33
2023-06-09T04:49:14.662Z,65.34
2023-06-09T04:51:49.726Z,65.27
2023-06-09T04:54:30.654Z,65.36
2023-06-09T04:57:03.027Z,65.52
2023-06-09T04:59:31.200Z,65.51
2023-06-09T05:01:59.094Z,65.41
2023-06-09T05:04:27.124Z,65.43
2023-06-09T05:06:54.406Z,65.49
2023-06-09T05:09:22.212Z,65.12
2023-06-09T05:11:49.005Z,65.44
2023-06-09T05:14:16.001Z,65.29
2023-06-09T05:16:47.262Z,65.07
2023-06-09T05:19:14.686Z,65.16
2023-06-09T05:26:01.850Z,64.09
2023-06-09T05:28:28.734Z,63.33
2023-06-09T05:30:56.222Z,62.65
2023-06-09T05:33:23.590Z,62.25
2023-06-09T05:35:51.093Z,61.85
2023-06-09T05:38:19.045Z,61.41
2023-06-09T05:40:45.925Z,60.74
2023-06-09T05:43:12.710Z,59.96
2023-06-09T05:45:39.561Z,59.39
2023-06-09T05:48:06.547Z,58.82
2023-06-09T05:50:33.505Z,58.47
2023-06-09T05:53:00.202Z,58.33
2023-06-09T05:55:27.142Z,58.03
2023-06-09T05:57:53.931Z,57.62
2023-06-09T06:00:20.990Z,57.27
2023-06-09T06:02:48.260Z,56.85
2023-06-09T06:05:15.243Z,56.54
2023-06-09T06:07:42.426Z,56.35
2023-06-09T06:10:09.787Z,55.82
2023-06-09T06:12:36.904Z,55.50
2023-06-09T06:15:03.995Z,55.41
2023-06-09T06:17:30.856Z,54.77
2023-06-09T06:19:58.653Z,54.62
2023-06-09T06:22:26.184Z,54.63
2023-06-09T06:24:52.905Z,54.85
2023-06-09T06:27:19.700Z,54.27
2023-06-09T06:29:46.698Z,53.62
2023-06-09T06:32:13.514Z,53.35
2023-06-09T06:34:40.436Z,52.58
2023-06-09T06:37:07.580Z,52.54
2023-06-09T06:39:34.770Z,52.13
2023-06-09T06:42:01.829Z,51.32
2023-06-09T06:44:33.202Z,50.94
2023-06-09T06:46:59.986Z,50.80
2023-06-09T06:49:26.760Z,50.64
2023-06-09T06:51:57.007Z,50.45
2023-06-09T06:54:23.808Z,50.04
2023-06-09T06:56:50.712Z,50.02
2023-06-09T06:59:17.555Z,49.82
2023-06-09T07:01:44.432Z,49.57
2023-06-09T07:04:11.302Z,49.35
2023-06-09T07:06:39.129Z,49.09
2023-06-09T07:09:06.291Z,48.97
2023-06-09T07:11:33.642Z,49.13
2023-06-09T07:14:00.626Z,49.06
2023-06-09T07:16:27.500Z,49.09
2023-06-09T07:18:54.329Z,48.25
2023-06-09T07:21:21.101Z,47.78
2023-06-09T07:23:47.950Z,47.49
2023-06-09T07:26:14.841Z,47.55
2023-06-09T07:28:41.705Z,47.64
2023-06-09T07:31:10.883Z,47.77
2023-06-09T07:33:38.898Z,47.68
2023-06-09T07:36:05.949Z,47.73
2023-06-09T07:38:32.659Z,47.79
2023-06-09T07:40:59.457Z,47.52
2023-06-09T07:43:26.890Z,47.57
2023-06-09T07:45:53.871Z,47.20
2023-06-09T07:48:20.698Z,46.95
2023-06-09T07:51:00.807Z,47.07
2023-06-09T07:53:29.095Z,46.11
2023-06-09T07:55:56.856Z,45.90
2023-06-09T07:58:23.620Z,45.20
2023-06-09T08:00:52.332Z,44.99
2023-06-09T08:03:19.545Z,44.69
2023-06-09T08:05:47.769Z,44.59
2023-06-09T08:08:16.601Z,44.55
2023-06-09T08:10:43.556Z,44.23
2023-06-09T08:13:12.095Z,44.21
2023-06-09T08:15:39.382Z,44.13
2023-06-09T08:18:06.398Z,44.13
2023-06-09T08:20:33.702Z,44.38
2023-06-09T08:23:00.493Z,44.37
2023-06-09T08:25:27.892Z,44.22
2023-06-09T08:27:54.622Z,43.54
2023-06-09T08:30:21.384Z,43.85
2023-06-09T08:32:48.192Z,43.75
2023-06-09T08:35:15.112Z,43.43
2023-06-09T08:37:43.232Z,43.50
2023-06-09T08:40:10.962Z,43.49
2023-06-09T08:42:40.495Z,42.66
2023-06-09T08:45:09.431Z,42.44
2023-06-09T08:47:37.725Z,42.30
2023-06-09T08:50:08.419Z,42.08
2023-06-09T08:52:36.226Z,42.57
2023-06-09T08:55:05.254Z,41.28
2023-06-09T08:57:33.561Z,41.50
2023-06-09T09:00:00.471Z,41.15
2023-06-09T09:02:27.357Z,40.81
2023-06-09T09:04:54.996Z,39.68
2023-06-09T09:07:22.092Z,40.23
2023-06-09T09:09:48.901Z,39.85
2023-06-09T09:12:15.666Z,39.67
2023-06-09T09:14:46.408Z,40.36
2023-06-09T09:17:14.640Z,40.40
2023-06-09T09:19:47.016Z,40.73
2023-06-09T09:22:14.337Z,40.92
2023-06-09T09:24:44.499Z,40.50
2023-06-09T09:27:19.877Z,41.19
2023-06-09T09:29:47.931Z,40.67
2023-06-09T09:32:16.651Z,40.02
2023-06-09T09:34:46.445Z,40.20
2023-06-09T09:37:18.080Z,40.59
2023-06-09T09:39:49.716Z,40.78
2023-06-09T09:42:17.579Z,40.99
2023-06-09T09:44:50.416Z,41.17
2023-06-09T09:47:18.366Z,41.20
2023-06-09T09:50:00.304Z,41.61
2023-06-09T09:52:29.202Z,41.67
2023-06-09T09:54:57.679Z,41.49
2023-06-09T09:57:26.794Z,41.47
2023-06-09T09:59:54.032Z,40.88
2023-06-09T10:02:30.690Z,40.94
2023-06-09T10:05:04.950Z,41.23
2023-06-09T10:07:39.224Z,40.66
2023-06-09T10:10:09.872Z,40.97
2023-06-09T10:12:38.866Z,40.76
2023-06-09T10:15:09.917Z,40.54
2023-06-09T10:17:38.015Z,40.35
2023-06-09T10:20:06.425Z,40.41
2023-06-09T10:22:33.355Z,40.39
2023-06-09T10:25:00.635Z,41.23
2023-06-09T10:27:27.929Z,41.30
2023-06-09T10:29:54.790Z,40.76
2023-06-09T10:32:27.443Z,40.58
2023-06-09T10:34:57.632Z,40.64
2023-06-09T10:37:34.273Z,39.98
2023-06-09T10:40:26.738Z,39.82
2023-06-09T10:43:22.611Z,39.94
2023-06-09T10:45:57.409Z,39.63
2023-06-09T10:48:56.782Z,39.25
2023-06-09T10:51:26.560Z,39.48
2023-06-09T10:54:08.727Z,38.47
2023-06-09T10:56:36.265Z,37.91
2023-06-09T10:59:04.253Z,37.70
2023-06-09T11:01:34.127Z,37.61
2023-06-09T11:04:01.362Z,37.48
2023-06-09T11:06:28.205Z,37.45
2023-06-09T11:09:09.654Z,37.74
2023-06-09T11:11:53.588Z,37.88
2023-06-09T11:14:46.057Z,37.45
2023-06-09T11:17:32.106Z,37.19
2023-06-09T11:20:12.176Z,37.41
2023-06-09T11:22:42.682Z,37.08
2023-06-09T11:25:31.340Z,37.09
2023-06-09T11:27:58.361Z,37.40
2023-06-09T11:30:26.511Z,37.53
2023-06-09T11:33:04.679Z,37.75
2023-06-09T11:35:31.967Z,36.38
2023-06-09T11:38:04.303Z,36.35
2023-06-09T11:40:32.771Z,36.49
2023-06-09T11:43:01.308Z,36.53
2023-06-09T11:45:31.756Z,36.51
2023-06-09T11:48:04.481Z,36.15
2023-06-09T11:50:41.384Z,35.45
2023-06-09T11:53:11.070Z,35.07
2023-06-09T11:55:38.880Z,35.84
2023-06-09T11:58:10.001Z,35.11
2023-06-09T12:00:42.591Z,35.26
2023-06-09T12:03:11.798Z,34.50
2023-06-09T12:05:39.198Z,33.92
2023-06-09T12:08:12.851Z,34.63
2023-06-09T12:10:39.698Z,35.39
2023-06-09T12:13:07.529Z,35.45
2023-06-09T12:15:34.886Z,35.96
2023-06-09T12:18:03.602Z,35.96
2023-06-09T12:20:35.291Z,36.06
2023-06-09T12:23:04.725Z,35.95
2023-06-09T12:25:36.421Z,35.97
2023-06-09T12:28:16.432Z,35.97
2023-06-09T12:30:49.015Z,35.61
2023-06-09T12:33:19.776Z,35.67
2023-06-09T12:35:56.016Z,35.54
2023-06-09T12:38:29.971Z,36.04
2023-06-09T12:41:06.192Z,34.83
2023-06-09T12:43:52.923Z,34.48
2023-06-09T12:46:29.263Z,35.07
2023-06-09T12:49:05.074Z,34.65
2023-06-09T12:51:40.705Z,34.12
2023-06-09T12:54:08.989Z,34.44
2023-06-09T12:56:35.802Z,35.05
2023-06-09T12:59:03.782Z,35.59
2023-06-09T13:01:33.819Z,35.47
2023-06-09T13:04:00.850Z,35.06
2023-06-09T13:06:28.023Z,34.78
2023-06-09T13:08:57.054Z,34.61
2023-06-09T13:11:24.666Z,35.12
2023-06-09T13:13:53.185Z,34.18
2023-06-09T13:16:20.460Z,34.13
2023-06-09T13:18:47.484Z,33.82
2023-06-09T13:21:14.361Z,34.11
2023-06-09T13:23:41.179Z,34.06
2023-06-09T13:26:07.984Z,33.57
2023-06-09T13:28:34.860Z,33.65
2023-06-09T13:31:01.746Z,33.61
2023-06-09T13:33:28.790Z,32.62
2023-06-09T13:35:55.667Z,32.32
2023-06-09T13:38:22.543Z,32.31
2023-06-09T13:40:50.033Z,32.50
2023-06-09T13:43:17.948Z,32.75
2023-06-09T13:45:45.016Z,32.64
2023-06-09T13:48:12.587Z,32.85
2023-06-09T13:50:40.362Z,33.60
2023-06-09T13:53:07.452Z,33.74
2023-06-09T13:55:34.243Z,34.58
2023-06-09T13:58:01.076Z,34.39
2023-06-09T14:00:28.026Z,34.64
2023-06-09T14:02:55.082Z,33.98
2023-06-09T14:05:25.183Z,33.83
2023-06-09T14:07:52.144Z,34.14
2023-06-09T14:10:19.424Z,34.13
2023-06-09T14:12:49.052Z,33.95
2023-06-09T14:17:51.085Z,33.97
2023-06-09T14:20:21.930Z,34.22
2023-06-09T14:22:51.106Z,33.92
2023-06-09T14:25:23.169Z,33.98
2023-06-09T14:27:53.823Z,34.12
2023-06-09T14:30:22.566Z,34.12
2023-06-09T14:32:51.612Z,33.81
2023-06-09T14:35:26.343Z,34.04
2023-06-09T14:37:58.197Z,34.19
2023-06-09T14:40:26.328Z,34.12
2023-06-09T14:42:53.159Z,34.09
2023-06-09T14:45:22.134Z,34.58
2023-06-09T14:48:10.165Z,34.77
2023-06-09T14:50:49.223Z,35.29
2023-06-09T14:53:16.413Z,35.24
2023-06-09T14:55:48.022Z,34.85
2023-06-09T14:58:17.244Z,34.92
2023-06-09T15:04:59.624Z,34.56
2023-06-09T15:11:47.323Z,34.60
2023-06-09T15:14:14.075Z,34.84
2023-06-09T15:16:40.860Z,34.90
2023-06-09T15:19:07.706Z,34.90
2023-06-09T15:25:54.683Z,35.46
2023-06-09T15:28:22.327Z,35.81
2023-06-09T15:30:50.305Z,35.91
2023-06-09T15:37:30.679Z,36.38
2023-06-09T15:44:25.305Z,36.54
2023-06-09T15:46:52.191Z,36.81
2023-06-09T15:49:19.139Z,36.80
2023-06-09T15:51:45.876Z,37.49
2023-06-09T15:54:12.793Z,37.84
2023-06-09T15:56:39.685Z,38.16
2023-06-09T15:59:06.751Z,38.27
2023-06-09T16:01:33.578Z,38.45
2023-06-09T16:04:00.449Z,38.76
2023-06-09T16:06:27.345Z,39.05
2023-06-09T16:08:54.083Z,39.43
2023-06-09T16:11:20.877Z,39.54
2023-06-09T16:13:47.957Z,39.73
2023-06-09T16:16:15.220Z,40.02
2023-06-09T16:18:43.396Z,40.25
2023-06-09T16:25:25.865Z,40.09
2023-06-09T16:27:52.976Z,40.07
2023-06-09T16:30:19.706Z,40.32
2023-06-09T16:32:47.408Z,40.53
2023-06-09T16:35:14.438Z,40.76
2023-06-09T16:37:41.645Z,40.92
2023-06-09T16:40:08.867Z,41.07
2023-06-09T16:46:57.249Z,41.27
2023-06-09T16:49:24.106Z,41.50
2023-06-09T16:56:10.801Z,41.78
2023-06-09T16:58:37.616Z,41.96
2023-06-09T17:01:04.360Z,41.97
2023-06-09T17:03:31.307Z,42.11
2023-06-09T17:05:58.097Z,42.37
2023-06-09T17:12:45.827Z,42.82
2023-06-09T17:15:13.016Z,42.93
2023-06-09T17:17:39.929Z,43.13
2023-06-09T17:20:07.611Z,43.33
2023-06-09T17:22:34.428Z,43.51
2023-06-09T17:25:01.754Z,43.70
2023-06-09T17:27:28.468Z,43.90
2023-06-09T17:29:55.401Z,43.73
2023-06-09T17:32:22.399Z,43.93
2023-06-09T17:34:49.152Z,44.17
2023-06-09T17:37:16.060Z,44.47
2023-06-09T17:39:43.463Z,44.44
2023-06-09T17:42:11.729Z,44.36
2023-06-09T17:44:38.716Z,44.47
2023-06-09T17:47:06.972Z,44.22
2023-06-09T17:49:34.802Z,44.18
2023-06-09T17:52:01.862Z,44.22
2023-06-09T17:54:32.162Z,44.46
2023-06-09T18:01:19.475Z,43.79
2023-06-09T18:03:46.460Z,43.81
2023-06-09T18:06:13.422Z,43.83
2023-06-09T18:08:40.847Z,44.15
2023-06-09T18:11:07.719Z,44.24
2023-06-09T18:13:34.550Z,44.52
2023-06-09T18:16:01.721Z,44.74
2023-06-09T18:18:28.678Z,44.85
2023-06-09T18:20:55.570Z,45.06
2023-06-09T18:23:22.438Z,45.26
2023-06-09T18:25:52.764Z,45.63
2023-06-09T18:32:39.881Z,46.26
2023-06-09T18:35:07.762Z,46.07
2023-06-09T18:37:34.808Z,46.27
2023-06-09T18:44:20.192Z,47.18
2023-06-09T18:46:47.445Z,48.19
2023-06-09T18:49:14.300Z,49.21
2023-06-09T18:51:41.645Z,50.28
2023-06-09T18:54:08.552Z,50.43
2023-06-09T18:56:36.386Z,50.80
2023-06-09T18:59:03.296Z,51.27
2023-06-09T19:01:30.643Z,51.59
2023-06-09T19:03:57.951Z,51.58
2023-06-09T19:06:25.192Z,52.10
2023-06-09T19:08:52.007Z,52.17
2023-06-09T19:11:18.986Z,52.32
2023-06-09T19:13:46.329Z,52.53
2023-06-09T19:16:13.145Z,52.73
2023-06-09T19:18:40.081Z,52.57
2023-06-09T19:21:07.071Z,52.83
2023-06-09T19:23:34.043Z,52.69
2023-06-09T19:26:02.033Z,52.98
2023-06-09T19:28:28.903Z,52.83
2023-06-09T19:30:55.800Z,52.89
2023-06-09T19:33:23.029Z,52.99
2023-06-09T19:35:49.970Z,53.19
2023-06-09T19:38:17.055Z,53.36
2023-06-09T19:40:44.076Z,53.56
2023-06-09T19:43:11.117Z,53.50
2023-06-09T19:45:37.871Z,53.76
2023-06-09T19:48:05.053Z,53.47
2023-06-09T19:50:36.299Z,53.36
2023-06-09T19:53:03.408Z,53.57
2023-06-09T19:55:30.355Z,53.71
2023-06-09T19:57:57.208Z,53.75
2023-06-09T20:00:24.169Z,53.86
2023-06-09T20:02:50.992Z,53.87
2023-06-09T20:05:17.907Z,54.18
2023-06-09T20:12:06.533Z,53.89
2023-06-09T20:18:46.846Z,54.31
2023-06-09T20:21:13.721Z,54.16
2023-06-09T20:23:43.617Z,54.37
2023-06-09T20:26:11.746Z,54.37
2023-06-09T20:28:38.933Z,54.53
2023-06-09T20:31:06.685Z,54.46
2023-06-09T20:33:42.465Z,54.38
2023-06-09T20:36:10.362Z,54.52
2023-06-09T20:42:57.917Z,54.43
2023-06-09T20:49:32.041Z,54.57
2023-06-09T20:51:58.861Z,54.64
2023-06-09T20:58:46.193Z,54.62
2023-06-09T21:05:27.724Z,54.52
2023-06-09T21:07:55.454Z,54.50
2023-06-09T21:10:24.491Z,54.71
2023-06-09T21:12:52.421Z,54.72
2023-06-09T21:15:19.161Z,54.86
2023-06-09T21:21:59.835Z,54.75
2023-06-09T21:24:26.710Z,54.95
2023-06-09T21:26:53.734Z,55.37
2023-06-09T21:29:20.681Z,55.71
2023-06-09T21:31:47.617Z,56.11
2023-06-09T21:34:14.442Z,56.41
2023-06-09T21:36:41.221Z,56.41
2023-06-09T21:43:26.960Z,57.12
2023-06-09T21:45:53.704Z,57.28
2023-06-09T21:48:20.548Z,57.68
2023-06-09T21:50:47.642Z,57.65
2023-06-09T21:57:35.213Z,57.67
2023-06-09T22:00:02.463Z,57.80
2023-06-09T22:02:32.022Z,57.93
2023-06-09T22:04:58.872Z,57.92
2023-06-09T22:07:25.668Z,57.91
2023-06-09T22:09:52.702Z,57.85
2023-06-09T22:12:19.685Z,57.68
2023-06-09T22:14:47.445Z,57.69
2023-06-09T22:17:16.314Z,57.76
2023-06-09T22:19:43.381Z,57.69
2023-06-09T22:22:10.414Z,57.58
2023-06-09T22:24:37.151Z,57.68
2023-06-09T22:27:05.368Z,57.62
2023-06-09T22:29:32.302Z,57.68
2023-06-09T22:31:59.346Z,57.61
2023-06-09T22:34:26.352Z,57.59
2023-06-09T22:36:53.086Z,57.55
2023-06-09T22:39:20.270Z,57.58
2023-06-09T22:41:47.076Z,57.65
2023-06-09T22:44:14.116Z,57.63
2023-06-09T22:46:41.042Z,57.43
2023-06-09T22:49:08.943Z,57.28
2023-06-09T22:51:36.109Z,57.32
2023-06-09T22:54:04.577Z,57.37
2023-06-09T22:56:31.955Z,57.36
2023-06-09T22:58:58.980Z,57.37
2023-06-09T23:01:27.766Z,57.39
2023-06-09T23:03:55.022Z,57.19
2023-06-09T23:06:34.806Z,57.13
2023-06-09T23:09:01.540Z,57.16
2023-06-09T23:11:29.934Z,57.47
2023-06-09T23:13:56.942Z,57.43
2023-06-09T23:16:23.820Z,57.45
2023-06-09T23:18:51.227Z,57.49
2023-06-09T23:21:19.531Z,57.52
2023-06-09T23:23:50.888Z,57.41
2023-06-09T23:26:18.126Z,57.50
2023-06-09T23:28:45.079Z,57.57
2023-06-09T23:31:12.022Z,57.53
2023-06-09T23:33:40.084Z,57.11
2023-06-09T23:36:07.260Z,56.84
2023-06-09T23:38:33.987Z,56.68
2023-06-09T23:41:00.860Z,56.68
2023-06-09T23:43:27.608Z,56.88
2023-06-09T23:45:54.468Z,57.04
2023-06-09T23:48:23.054Z,57.25
2023-06-09T23:50:50.866Z,57.21
2023-06-09T23:53:22.407Z,57.06
2023-06-09T23:55:50.196Z,57.14
2023-06-09T23:58:18.822Z,57.51
